Time;durP1;ratioP1;P1;durP2;ratioP2;P2;SDS_P1;SDS_P2;PMS_P1;PMS_P2;Temp;Humidity;BMP_temperature;BMP_pressure;BME280_temperature;BME280_humidity;BME280_pressure;Samples;Min_cycle;Max_cycle;Signal;HPM_P1;HPM_P2
2023/04/15 00:01:59;;;;;;;5.37;4.00;;;10.30;71.80;;;;;;5055044;28;20506;-56
2023/04/15 00:04:25;;;;;;;7.93;3.53;;;10.30;72.20;;;;;;5055254;28;20508;-56
2023/04/15 00:06:53;;;;;;;5.87;3.53;;;10.20;72.40;;;;;;5055328;28;20531;-56
2023/04/15 00:09:20;;;;;;;6.90;3.87;;;10.20;72.80;;;;;;5055229;28;20511;-56
2023/04/15 00:11:46;;;;;;;3.70;3.37;;;10.20;73.20;;;;;;5054905;28;20823;-56
2023/04/15 00:14:14;;;;;;;5.97;4.13;;;10.20;73.50;;;;;;5055247;28;20474;-56
2023/04/15 00:16:42;;;;;;;7.30;4.10;;;10.20;73.90;;;;;;5055145;28;20445;-56
2023/04/15 00:19:09;;;;;;;6.00;3.20;;;10.20;74.10;;;;;;5055197;28;20452;-56
2023/04/15 00:21:35;;;;;;;4.73;3.10;;;10.10;73.40;;;;;;5055222;28;20448;-56
2023/04/15 00:24:02;;;;;;;4.60;3.50;;;10.00;72.80;;;;;;5054985;28;20474;-56
2023/04/15 00:26:29;;;;;;;4.57;3.63;;;9.90;73.50;;;;;;5054750;28;20485;-56
2023/04/15 00:28:55;;;;;;;4.70;3.83;;;9.80;73.00;;;;;;5054956;28;20827;-57
2023/04/15 00:31:22;;;;;;;7.20;3.70;;;9.70;72.40;;;;;;5054834;28;20787;-56
2023/04/15 00:33:51;;;;;;;5.07;4.27;;;9.60;73.40;;;;;;5054679;28;20466;-56
2023/04/15 00:36:18;;;;;;;4.93;3.53;;;9.60;73.60;;;;;;5054567;28;21032;-56
2023/04/15 00:38:44;;;;;;;4.50;4.07;;;9.50;73.40;;;;;;5054675;28;20458;-56
2023/04/15 00:41:12;;;;;;;4.70;3.80;;;9.50;73.70;;;;;;5054471;28;20454;-56
2023/04/15 00:43:38;;;;;;;5.53;3.77;;;9.50;74.30;;;;;;5054519;28;20430;-57
2023/04/15 00:46:07;;;;;;;5.17;4.43;;;9.40;74.60;;;;;;5054755;28;20469;-56
2023/04/15 00:48:33;;;;;;;4.30;3.77;;;9.40;74.70;;;;;;5054161;28;20811;-57
2023/04/15 00:51:01;;;;;;;4.23;3.83;;;9.40;75.20;;;;;;5054470;28;20450;-56
2023/04/15 00:53:28;;;;;;;4.80;4.30;;;9.40;75.40;;;;;;5054084;28;20967;-56
2023/04/15 00:55:56;;;;;;;6.53;4.10;;;9.40;75.80;;;;;;5054507;28;20507;-56
2023/04/15 00:58:23;;;;;;;6.20;4.20;;;9.40;75.90;;;;;;5054432;28;20805;-57
2023/04/15 01:00:53;;;;;;;4.40;3.40;;;9.40;76.10;;;;;;5054500;28;20449;-56
2023/04/15 01:03:19;;;;;;;6.67;4.30;;;9.40;76.70;;;;;;5053848;28;20449;-56
2023/04/15 01:05:46;;;;;;;6.60;4.40;;;9.40;77.10;;;;;;5054584;28;20449;-56
2023/04/15 01:08:14;;;;;;;3.83;3.53;;;9.30;77.20;;;;;;5054066;28;20485;-57
2023/04/15 01:10:42;;;;;;;6.10;4.40;;;9.40;77.60;;;;;;5054101;28;20456;-56
2023/04/15 01:13:09;;;;;;;4.40;4.00;;;9.30;77.80;;;;;;5053867;28;20948;-56
2023/04/15 01:15:36;;;;;;;5.77;4.20;;;9.40;78.30;;;;;;5053900;28;20595;-56
2023/04/15 01:18:03;;;;;;;5.67;4.87;;;9.40;78.70;;;;;;5053959;28;20500;-56
2023/04/15 01:20:30;;;;;;;5.63;4.17;;;9.40;78.90;;;;;;5053961;28;20453;-56
2023/04/15 01:22:57;;;;;;;5.27;4.77;;;9.40;78.70;;;;;;5053899;28;20821;-56
2023/04/15 01:25:32;;;;;;;4.23;3.83;;;9.30;79.00;;;;;;5053773;28;20491;-57
2023/04/15 01:27:59;;;;;;;4.90;3.80;;;9.30;78.10;;;;;;5053427;28;21065;-57
2023/04/15 01:30:26;;;;;;;3.83;3.43;;;9.20;77.90;;;;;;5053746;28;20476;-56
2023/04/15 01:32:53;;;;;;;6.43;3.33;;;9.10;77.90;;;;;;5053723;28;20481;-57
2023/04/15 01:35:21;;;;;;;5.07;3.70;;;9.10;77.90;;;;;;5053605;28;20877;-56
2023/04/15 01:37:48;;;;;;;3.57;3.27;;;9.00;78.30;;;;;;5054341;28;20438;-56
2023/04/15 01:40:15;;;;;;;3.33;3.03;;;8.90;78.40;;;;;;5053626;28;20474;-56
2023/04/15 01:42:43;;;;;;;4.50;3.53;;;8.90;78.60;;;;;;5053174;28;20461;-56
2023/04/15 01:45:11;;;;;;;4.40;3.90;;;8.90;79.00;;;;;;5053389;28;20865;-56
2023/04/15 01:47:38;;;;;;;4.30;3.33;;;8.80;79.10;;;;;;5053503;28;20905;-56
2023/04/15 01:50:05;;;;;;;4.07;3.53;;;8.80;79.40;;;;;;5053469;28;20452;-56
2023/04/15 01:52:32;;;;;;;3.87;3.57;;;8.70;79.60;;;;;;5053366;28;20503;-56
2023/04/15 01:54:59;;;;;;;7.57;3.70;;;8.70;80.50;;;;;;5053302;28;20477;-56
2023/04/15 01:57:26;;;;;;;4.03;3.70;;;8.60;79.40;;;;;;5053385;28;20471;-56
2023/04/15 01:59:53;;;;;;;4.80;3.33;;;8.60;79.50;;;;;;5053350;28;20457;-57
2023/04/15 02:02:20;;;;;;;3.87;3.57;;;8.50;79.60;;;;;;5053360;28;20450;-57
2023/04/15 02:04:47;;;;;;;4.10;3.10;;;8.50;79.80;;;;;;5053163;28;20474;-57
2023/04/15 02:07:14;;;;;;;9.43;4.57;;;8.50;80.10;;;;;;5053118;28;20556;-57
2023/04/15 02:09:40;;;;;;;5.60;4.17;;;8.50;80.40;;;;;;5053821;28;20481;-56
2023/04/15 02:12:07;;;;;;;5.47;3.97;;;8.40;80.40;;;;;;5059583;28;20472;-57
2023/04/15 02:14:34;;;;;;;3.70;3.40;;;8.40;80.60;;;;;;5059983;28;20564;-56
2023/04/15 02:17:06;;;;;;;6.93;4.57;;;8.40;80.60;;;;;;5059801;28;20449;-56
2023/04/15 02:19:32;;;;;;;4.40;3.90;;;8.40;81.20;;;;;;5060012;28;20425;-57
2023/04/15 02:22:00;;;;;;;5.20;3.60;;;8.40;81.60;;;;;;5059969;28;20849;-57
2023/04/15 02:24:27;;;;;;;6.20;4.63;;;8.30;81.60;;;;;;5059368;28;20473;-57
2023/04/15 02:26:54;;;;;;;3.93;3.20;;;8.30;81.50;;;;;;5059664;28;20484;-57
2023/04/15 02:29:22;;;;;;;4.53;3.67;;;8.20;81.60;;;;;;5059807;28;20453;-57
2023/04/15 02:31:48;;;;;;;6.00;4.00;;;8.20;81.70;;;;;;5059764;28;20899;-57
2023/04/15 02:34:16;;;;;;;5.67;4.07;;;8.20;82.10;;;;;;5059692;28;20473;-57
2023/04/15 02:36:43;;;;;;;4.97;4.57;;;8.10;82.00;;;;;;5059510;28;20852;-57
2023/04/15 02:39:11;;;;;;;4.70;4.30;;;8.10;81.90;;;;;;5059644;28;20449;-56
2023/04/15 02:41:38;;;;;;;5.80;4.27;;;8.10;82.00;;;;;;5059486;28;20465;-57
2023/04/15 02:44:06;;;;;;;5.97;4.80;;;8.10;82.00;;;;;;5059215;28;20979;-57
2023/04/15 02:46:32;;;;;;;5.40;4.90;;;8.10;82.10;;;;;;5059552;28;20484;-57
2023/04/15 02:48:59;;;;;;;5.63;4.80;;;8.10;82.50;;;;;;5059167;28;21025;-57
2023/04/15 02:51:31;;;;;;;7.37;5.10;;;8.10;82.90;;;;;;5059231;28;20947;-57
2023/04/15 02:53:58;;;;;;;6.77;4.70;;;8.10;83.00;;;;;;5059710;28;20465;-57
2023/04/15 02:56:25;;;;;;;5.70;4.90;;;8.10;83.10;;;;;;5059480;28;20495;-56
2023/04/15 02:58:54;;;;;;;4.80;4.40;;;8.10;83.50;;;;;;5059521;28;20552;-57
2023/04/15 03:01:21;;;;;;;5.67;3.70;;;8.00;83.40;;;;;;5059394;28;20450;-56
2023/04/15 03:03:48;;;;;;;4.27;3.47;;;8.00;83.30;;;;;;5059040;28;20979;-56
2023/04/15 03:06:15;;;;;;;6.73;3.53;;;8.00;83.10;;;;;;5059402;28;20445;-56
2023/04/15 03:08:43;;;;;;;3.87;3.57;;;7.90;83.00;;;;;;5059345;28;20476;-56
2023/04/15 03:11:10;;;;;;;4.20;3.83;;;7.90;83.20;;;;;;5059338;28;20453;-56
2023/04/15 03:13:38;;;;;;;5.20;4.10;;;7.90;83.60;;;;;;5058889;28;20970;-56
2023/04/15 03:16:05;;;;;;;4.70;4.20;;;7.80;83.80;;;;;;5059294;28;20453;-56
2023/04/15 03:18:32;;;;;;;6.50;4.70;;;7.80;83.70;;;;;;5059277;28;20450;-56
2023/04/15 03:20:59;;;;;;;5.00;4.23;;;7.80;83.80;;;;;;5059165;28;20454;-56
2023/04/15 03:23:25;;;;;;;5.57;4.10;;;7.80;83.70;;;;;;5055761;28;20947;-57
2023/04/15 03:25:56;;;;;;;5.10;4.60;;;7.80;83.90;;;;;;5056048;28;20464;-56
2023/04/15 03:28:22;;;;;;;5.80;4.27;;;7.80;84.00;;;;;;5056040;28;20470;-56
2023/04/15 03:30:49;;;;;;;5.13;4.63;;;7.70;84.00;;;;;;5055927;28;20815;-56
2023/04/15 03:33:16;;;;;;;5.57;5.07;;;7.80;84.30;;;;;;5055603;28;20456;-56
2023/04/15 03:35:42;;;;;;;5.13;4.27;;;7.80;84.10;;;;;;5055864;28;20519;-56
2023/04/15 03:38:09;;;;;;;7.43;4.73;;;7.80;84.10;;;;;;5055742;28;20812;-57
2023/04/15 03:40:36;;;;;;;6.57;4.53;;;7.70;84.30;;;;;;5055790;28;20503;-57
2023/04/15 03:43:04;;;;;;;7.93;4.30;;;7.70;84.60;;;;;;5055357;28;20480;-57
2023/04/15 03:45:31;;;;;;;4.17;3.77;;;7.70;84.40;;;;;;5055716;28;20476;-57
2023/04/15 03:47:57;;;;;;;4.40;4.10;;;7.60;84.00;;;;;;5055264;28;21006;-57
2023/04/15 03:50:24;;;;;;;4.83;4.00;;;7.60;84.40;;;;;;5056002;28;20452;-57
2023/04/15 03:52:51;;;;;;;4.37;3.53;;;7.60;84.60;;;;;;5055659;28;20477;-57
2023/04/15 03:55:18;;;;;;;4.47;4.00;;;7.60;84.50;;;;;;5055836;28;20469;-56
2023/04/15 03:57:45;;;;;;;5.80;4.30;;;7.60;84.70;;;;;;5055260;28;20446;-56
2023/04/15 04:00:14;;;;;;;5.97;4.47;;;7.60;85.30;;;;;;5055554;28;20446;-56
2023/04/15 04:02:41;;;;;;;6.10;4.40;;;7.60;85.70;;;;;;5055478;28;20441;-57
2023/04/15 04:05:08;;;;;;;4.50;4.10;;;7.60;85.70;;;;;;5055484;28;20838;-56
2023/04/15 04:07:35;;;;;;;5.17;4.77;;;7.50;85.50;;;;;;5055200;28;20477;-56
2023/04/15 04:10:03;;;;;;;6.43;5.20;;;7.50;86.00;;;;;;5055196;28;20445;-56
2023/04/15 04:12:30;;;;;;;5.30;4.80;;;7.50;86.20;;;;;;5055130;28;20491;-56
2023/04/15 04:14:57;;;;;;;10.33;4.67;;;7.50;86.10;;;;;;5054818;28;21056;-56
2023/04/15 04:17:25;;;;;;;5.20;4.60;;;7.50;86.10;;;;;;5054831;28;20947;-56
2023/04/15 04:19:52;;;;;;;6.00;5.03;;;7.50;86.10;;;;;;5055381;28;20540;-57
2023/04/15 04:22:22;;;;;;;7.10;4.27;;;7.50;86.40;;;;;;5054695;28;20951;-57
2023/04/15 04:24:49;;;;;;;6.57;5.97;;;7.50;86.80;;;;;;5054980;28;20477;-56
2023/04/15 04:27:16;;;;;;;6.50;5.90;;;7.50;87.20;;;;;;5054553;28;20986;-56
2023/04/15 04:29:43;;;;;;;10.80;6.37;;;7.50;87.70;;;;;;5054864;28;20548;-56
2023/04/15 04:32:10;;;;;;;8.20;6.23;;;7.50;88.20;;;;;;5054565;28;20858;-56
2023/04/15 04:34:38;;;;;;;9.43;6.63;;;7.50;88.70;;;;;;5054180;28;20485;-56
2023/04/15 04:37:05;;;;;;;6.40;5.90;;;7.50;88.90;;;;;;5054693;28;20485;-56
2023/04/15 04:39:32;;;;;;;7.20;6.60;;;7.50;89.00;;;;;;5054659;28;20532;-57
2023/04/15 04:42:00;;;;;;;7.37;6.67;;;7.50;89.20;;;;;;5054209;28;20944;-56
2023/04/15 04:44:26;;;;;;;6.33;5.70;;;7.50;89.70;;;;;;5054555;28;20508;-56
2023/04/15 04:46:53;;;;;;;7.17;6.03;;;7.50;89.60;;;;;;5054551;28;20488;-56
2023/04/15 04:49:20;;;;;;;5.07;4.60;;;7.50;89.50;;;;;;5054395;28;20485;-56
2023/04/15 04:51:48;;;;;;;4.40;4.00;;;7.40;89.20;;;;;;5054477;28;20450;-56
2023/04/15 04:54:15;;;;;;;5.50;4.03;;;7.40;88.50;;;;;;5055128;28;20470;-56
2023/04/15 04:56:42;;;;;;;5.07;4.60;;;7.40;88.00;;;;;;5054356;28;20449;-57
2023/04/15 04:59:08;;;;;;;4.87;4.47;;;7.30;87.80;;;;;;5054439;28;20804;-57
2023/04/15 05:01:36;;;;;;;4.93;4.53;;;7.30;88.20;;;;;;5053928;28;20828;-56
2023/04/15 05:04:03;;;;;;;4.27;3.87;;;7.30;88.50;;;;;;5054159;28;20473;-57
2023/04/15 05:06:31;;;;;;;7.43;3.80;;;7.30;88.50;;;;;;5054973;28;20802;-56
2023/04/15 05:09:01;;;;;;;6.27;4.67;;;7.30;88.50;;;;;;5054035;28;20503;-56
2023/04/15 05:11:27;;;;;;;7.70;4.80;;;7.20;88.20;;;;;;5054010;28;20453;-56
2023/04/15 05:13:54;;;;;;;5.03;4.53;;;7.20;88.50;;;;;;5053992;28;20465;-56
2023/04/15 05:16:21;;;;;;;5.77;5.17;;;7.20;88.80;;;;;;5054133;28;20450;-56
2023/04/15 05:18:47;;;;;;;8.30;5.20;;;7.20;89.40;;;;;;5054014;28;20495;-57
2023/04/15 05:21:14;;;;;;;5.70;5.20;;;7.20;89.80;;;;;;5054103;28;20445;-56
2023/04/15 05:23:41;;;;;;;5.80;5.30;;;7.20;90.20;;;;;;5053474;28;20983;-56
2023/04/15 05:26:09;;;;;;;7.33;5.60;;;7.30;90.30;;;;;;5054103;28;20468;-57
2023/04/15 05:28:35;;;;;;;6.30;5.70;;;7.30;90.60;;;;;;5053743;28;20484;-56
2023/04/15 05:31:02;;;;;;;6.23;5.40;;;7.30;90.70;;;;;;5053859;28;20449;-56
2023/04/15 05:33:29;;;;;;;7.13;5.70;;;7.40;91.00;;;;;;5053583;28;20449;-56
2023/04/15 05:35:56;;;;;;;10.70;5.83;;;7.40;91.30;;;;;;5053671;28;20445;-56
2023/04/15 05:38:22;;;;;;;7.03;6.33;;;7.50;91.50;;;;;;5053678;28;20448;-56
2023/04/15 05:40:49;;;;;;;8.53;6.37;;;7.60;91.50;;;;;;5053447;28;20473;-56
2023/04/15 05:43:17;;;;;;;7.53;6.67;;;7.60;91.50;;;;;;5053609;28;20434;-57
2023/04/15 05:45:44;;;;;;;7.97;6.73;;;7.70;91.80;;;;;;5052622;28;20843;-57
2023/04/15 05:48:11;;;;;;;8.47;6.80;;;7.80;91.90;;;;;;5053454;28;20531;-57
2023/04/15 05:50:40;;;;;;;7.67;6.87;;;7.90;92.00;;;;;;5053405;28;20450;-57
2023/04/15 05:53:07;;;;;;;7.50;6.67;;;7.90;92.10;;;;;;5053538;28;20457;-57
2023/04/15 05:55:34;;;;;;;6.77;6.07;;;8.00;92.00;;;;;;5053314;28;20477;-57
2023/04/15 05:58:00;;;;;;;7.40;5.50;;;8.10;92.20;;;;;;5053024;28;20944;-57
2023/04/15 06:00:28;;;;;;;8.63;6.40;;;8.10;92.40;;;;;;5053355;28;20450;-57
2023/04/15 06:02:56;;;;;;;7.83;6.63;;;8.20;92.30;;;;;;5053308;28;20442;-57
2023/04/15 06:05:23;;;;;;;6.97;6.13;;;8.30;92.40;;;;;;5053282;28;20519;-57
2023/04/15 06:07:50;;;;;;;10.77;6.80;;;8.30;92.40;;;;;;5052857;28;20951;-56
2023/04/15 06:10:16;;;;;;;8.20;7.40;;;8.40;92.60;;;;;;5053288;28;20461;-57
2023/04/15 06:12:43;;;;;;;9.03;8.10;;;8.50;92.80;;;;;;5053511;28;20449;-56
2023/04/15 06:15:10;;;;;;;9.60;7.90;;;8.60;93.00;;;;;;5053144;28;20474;-57
2023/04/15 06:17:39;;;;;;;9.43;7.97;;;8.80;93.20;;;;;;5053312;28;20450;-56
2023/04/15 06:20:07;;;;;;;10.40;7.83;;;8.90;93.40;;;;;;5053279;28;20449;-57
2023/04/15 06:22:34;;;;;;;8.93;7.47;;;9.00;93.50;;;;;;5053238;28;20456;-56
2023/04/15 06:25:01;;;;;;;9.70;8.80;;;9.10;93.70;;;;;;5053103;28;20466;-56
2023/04/15 06:27:27;;;;;;;10.60;9.60;;;9.20;93.60;;;;;;5053315;28;20476;-57
2023/04/15 06:29:54;;;;;;;12.23;11.00;;;9.30;93.70;;;;;;5053081;28;20481;-57
2023/04/15 06:32:21;;;;;;;14.00;10.67;;;9.50;93.90;;;;;;5053035;28;20446;-57
2023/04/15 06:34:49;;;;;;;11.03;9.80;;;9.60;93.90;;;;;;5053031;28;20477;-57
2023/04/15 06:37:16;;;;;;;13.53;10.90;;;9.60;93.70;;;;;;5053036;28;20457;-57
2023/04/15 06:39:43;;;;;;;12.20;10.20;;;9.70;93.60;;;;;;5052669;28;20931;-57
2023/04/15 06:42:10;;;;;;;13.37;11.20;;;9.80;93.60;;;;;;5052941;28;20460;-57
2023/04/15 06:44:37;;;;;;;13.73;11.20;;;9.80;93.50;;;;;;5053007;28;20477;-56
2023/04/15 06:47:04;;;;;;;13.90;10.67;;;10.00;92.90;;;;;;5053097;28;20449;-56
2023/04/15 06:49:31;;;;;;;12.90;9.93;;;10.00;92.90;;;;;;5052492;28;21010;-56
2023/04/15 06:51:59;;;;;;;13.30;10.63;;;10.00;92.90;;;;;;5052584;28;20944;-57
2023/04/15 06:54:26;;;;;;;14.00;10.30;;;10.10;93.00;;;;;;5052730;28;20896;-57
2023/04/15 06:56:53;;;;;;;10.77;9.67;;;10.20;93.00;;;;;;5054305;28;20453;-57
2023/04/15 06:59:19;;;;;;;12.47;10.10;;;10.30;92.90;;;;;;5056516;28;20437;-57
2023/04/15 07:01:46;;;;;;;14.70;12.33;;;10.40;92.60;;;;;;5056545;28;20445;-57
2023/04/15 07:04:13;;;;;;;13.90;12.27;;;10.50;92.60;;;;;;5056400;28;20534;-57
2023/04/15 07:06:40;;;;;;;14.00;11.70;;;10.60;92.70;;;;;;5056114;28;20453;-57
2023/04/15 07:09:08;;;;;;;19.40;13.63;;;10.70;92.80;;;;;;5056336;28;20512;-57
2023/04/15 07:11:35;;;;;;;14.70;13.13;;;10.90;92.90;;;;;;5056065;28;20798;-56
2023/04/15 07:14:02;;;;;;;15.63;11.80;;;11.00;92.90;;;;;;5056484;28;20469;-56
2023/04/15 07:16:29;;;;;;;12.83;11.53;;;11.20;93.00;;;;;;5056594;28;20441;-57
2023/04/15 07:18:56;;;;;;;14.03;12.53;;;11.40;92.60;;;;;;5056185;28;20441;-57
2023/04/15 07:21:23;;;;;;;13.40;11.93;;;11.50;92.40;;;;;;5055851;28;20446;-56
2023/04/15 07:23:50;;;;;;;12.83;11.53;;;11.70;92.10;;;;;;5056071;28;20539;-57
2023/04/15 07:26:18;;;;;;;17.00;13.00;;;11.90;91.80;;;;;;5055831;28;20951;-57
2023/04/15 07:28:46;;;;;;;13.70;12.17;;;12.00;91.60;;;;;;5056020;28;20488;-57
2023/04/15 07:31:13;;;;;;;14.03;11.17;;;12.20;91.40;;;;;;5055945;28;20480;-57
2023/04/15 07:33:40;;;;;;;13.10;11.40;;;12.40;90.90;;;;;;5055553;28;21064;-57
2023/04/15 07:36:07;;;;;;;12.30;11.00;;;12.60;90.70;;;;;;5055911;28;20457;-57
2023/04/15 07:38:34;;;;;;;12.13;10.20;;;12.80;90.50;;;;;;5055845;28;20962;-57
2023/04/15 07:41:01;;;;;;;9.33;8.33;;;13.00;90.00;;;;;;5055394;28;20492;-57
2023/04/15 07:43:29;;;;;;;9.70;8.70;;;13.20;88.90;;;;;;5055747;28;20453;-57
2023/04/15 07:45:56;;;;;;;10.60;8.73;;;13.40;87.80;;;;;;5055384;28;20943;-57
2023/04/15 07:48:22;;;;;;;10.20;9.20;;;13.50;86.70;;;;;;5055218;28;20943;-57
2023/04/15 07:50:49;;;;;;;9.30;8.40;;;13.60;85.30;;;;;;5055555;28;20445;-57
2023/04/15 07:53:16;;;;;;;10.30;9.30;;;13.70;84.40;;;;;;5055600;28;20445;-57
2023/04/15 07:55:42;;;;;;;10.07;9.00;;;13.80;84.60;;;;;;5055535;28;20515;-57
2023/04/15 07:58:09;;;;;;;12.77;9.67;;;13.90;84.10;;;;;;5055466;28;20453;-57
2023/04/15 08:00:37;;;;;;;11.13;9.53;;;14.10;83.20;;;;;;5055544;28;20521;-57
2023/04/15 08:03:04;;;;;;;10.93;8.47;;;14.10;81.80;;;;;;5055059;28;20947;-57
2023/04/15 08:05:31;;;;;;;11.30;10.20;;;14.20;81.70;;;;;;5055347;28;20474;-56
2023/04/15 08:07:58;;;;;;;9.50;8.60;;;14.30;81.60;;;;;;5054630;28;20507;-57
2023/04/15 08:10:25;;;;;;;11.00;9.90;;;14.40;82.00;;;;;;5055167;28;20485;-57
2023/04/15 08:12:53;;;;;;;9.60;8.70;;;14.60;81.50;;;;;;5055404;28;20504;-57
2023/04/15 08:15:20;;;;;;;8.50;7.73;;;14.60;80.50;;;;;;5055170;28;21073;-57
2023/04/15 08:17:48;;;;;;;8.00;7.30;;;14.70;79.90;;;;;;5055148;28;20454;-57
2023/04/15 08:20:15;;;;;;;10.00;8.40;;;14.80;79.30;;;;;;5055216;28;20449;-57
2023/04/15 08:22:41;;;;;;;8.47;6.73;;;14.80;78.70;;;;;;5055199;28;20827;-57
2023/04/15 08:25:09;;;;;;;7.70;6.90;;;14.90;77.50;;;;;;5055067;28;20492;-56
2023/04/15 08:27:36;;;;;;;8.07;5.90;;;14.90;76.60;;;;;;5054971;28;20816;-57
2023/04/15 08:30:03;;;;;;;10.00;6.40;;;15.10;74.80;;;;;;5054513;28;21020;-57
2023/04/15 08:32:30;;;;;;;6.40;5.90;;;15.20;73.80;;;;;;5054861;28;20446;-57
2023/04/15 08:34:58;;;;;;;6.83;6.23;;;15.30;73.40;;;;;;5054782;28;20469;-57
2023/04/15 08:37:25;;;;;;;7.37;6.67;;;15.50;71.90;;;;;;5055267;28;20457;-57
2023/04/15 08:39:52;;;;;;;6.73;6.13;;;15.70;71.50;;;;;;5054669;28;20446;-57
2023/04/15 08:42:25;;;;;;;10.03;6.87;;;15.90;69.70;;;;;;5054372;28;20457;-56
2023/04/15 08:44:51;;;;;;;6.33;5.70;;;15.90;68.40;;;;;;5054589;28;20477;-57
2023/04/15 08:47:21;;;;;;;6.47;5.97;;;16.00;67.90;;;;;;5054282;28;20947;-57
2023/04/15 08:49:52;;;;;;;6.97;6.37;;;16.10;67.80;;;;;;5054381;28;20485;-57
2023/04/15 08:52:21;;;;;;;7.70;5.67;;;16.20;68.30;;;;;;5054463;28;20434;-57
2023/04/15 08:54:48;;;;;;;5.80;5.17;;;16.40;67.90;;;;;;5054205;28;20496;-57
2023/04/15 08:57:15;;;;;;;4.40;4.00;;;16.60;66.80;;;;;;5054044;28;20939;-57
2023/04/15 08:59:43;;;;;;;5.13;4.73;;;16.60;64.60;;;;;;5054048;28;20951;-57
2023/04/15 09:02:10;;;;;;;5.00;4.60;;;16.70;63.30;;;;;;5054219;28;20484;-57
2023/04/15 09:04:37;;;;;;;5.10;4.70;;;16.70;62.30;;;;;;5054145;28;20623;-57
2023/04/15 09:07:03;;;;;;;6.40;5.90;;;16.80;61.90;;;;;;5054132;28;20449;-57
2023/04/15 09:09:31;;;;;;;6.50;5.90;;;16.80;61.70;;;;;;5054101;28;20489;-57
2023/04/15 09:11:58;;;;;;;5.90;5.40;;;16.90;61.00;;;;;;5054033;28;20445;-57
2023/04/15 09:14:25;;;;;;;6.93;6.23;;;17.00;60.60;;;;;;5053978;28;20515;-57
2023/04/15 09:16:58;;;;;;;10.17;6.93;;;17.10;59.90;;;;;;5054000;28;20454;-57
2023/04/15 09:19:26;;;;;;;6.90;6.20;;;17.30;59.50;;;;;;5053817;28;20449;-57
2023/04/15 09:21:55;;;;;;;6.97;5.97;;;17.40;58.90;;;;;;5053567;28;20786;-57
2023/04/15 09:24:22;;;;;;;6.70;6.10;;;17.50;58.20;;;;;;5053724;28;20998;-57
2023/04/15 09:26:53;;;;;;;7.97;7.27;;;17.70;58.20;;;;;;5053889;28;20456;-57
2023/04/15 09:29:20;;;;;;;7.63;7.03;;;17.80;57.30;;;;;;5053451;28;21114;-57
2023/04/15 09:31:47;;;;;;;6.80;5.90;;;17.90;57.00;;;;;;5053775;28;20457;-57
2023/04/15 09:34:13;;;;;;;8.17;5.47;;;18.00;55.50;;;;;;5053749;28;20496;-57
2023/04/15 09:36:53;;;;;;;4.63;4.20;;;18.20;55.30;;;;;;5053620;28;20461;-57
2023/04/15 09:39:20;;;;;;;5.73;5.13;;;18.40;55.30;;;;;;5053662;28;20426;-57
2023/04/15 09:41:47;;;;;;;7.20;5.17;;;18.60;54.70;;;;;;5053169;28;20959;-57
2023/04/15 09:44:24;;;;;;;6.93;4.60;;;18.90;54.40;;;;;;5053715;28;20462;-57
2023/04/15 09:46:50;;;;;;;5.70;4.80;;;19.10;53.80;;;;;;5053700;28;20457;-57
2023/04/15 09:49:18;;;;;;;8.77;4.33;;;19.30;53.00;;;;;;5053083;28;21014;-57
2023/04/15 09:51:45;;;;;;;4.77;4.30;;;19.50;52.80;;;;;;5053596;28;20865;-57
2023/04/15 09:54:11;;;;;;;4.10;2.80;;;19.60;50.70;;;;;;5053020;28;20503;-57
2023/04/15 09:56:40;;;;;;;5.57;3.80;;;19.60;49.80;;;;;;5053446;28;20853;-57
2023/04/15 09:59:07;;;;;;;5.20;3.50;;;19.80;49.70;;;;;;5053422;28;20449;-57
2023/04/15 10:01:36;;;;;;;4.03;3.07;;;20.00;49.90;;;;;;5053439;28;20445;-57
2023/04/15 10:04:04;;;;;;;4.43;3.43;;;20.10;49.30;;;;;;5053358;28;20472;-57
2023/04/15 10:06:31;;;;;;;2.63;2.47;;;20.20;49.30;;;;;;5053380;28;20631;-57
2023/04/15 10:08:58;;;;;;;2.83;2.53;;;20.30;48.50;;;;;;5053287;28;20457;-57
2023/04/15 10:11:29;;;;;;;2.83;2.50;;;20.40;48.00;;;;;;5053508;28;20440;-57
2023/04/15 10:13:57;;;;;;;2.90;2.70;;;20.50;47.30;;;;;;5053256;28;20476;-57
2023/04/15 10:16:27;;;;;;;2.60;2.40;;;20.50;47.60;;;;;;5052897;28;20807;-57
2023/04/15 10:18:57;;;;;;;3.53;2.77;;;20.50;46.70;;;;;;5052891;28;20445;-57
2023/04/15 10:21:24;;;;;;;3.40;3.10;;;20.60;47.50;;;;;;5053511;28;20484;-57
2023/04/15 10:23:51;;;;;;;3.33;3.07;;;20.80;48.30;;;;;;5053094;28;20465;-57
2023/04/15 10:26:18;;;;;;;2.90;2.70;;;21.10;48.30;;;;;;5053063;28;20445;-57
2023/04/15 10:28:46;;;;;;;2.40;2.20;;;21.50;47.10;;;;;;5053288;28;20450;-57
2023/04/15 10:31:13;;;;;;;1.93;1.83;;;21.60;44.30;;;;;;5053373;28;20572;-57
2023/04/15 10:33:41;;;;;;;2.00;1.90;;;21.70;45.00;;;;;;5056989;28;20543;-57
2023/04/15 10:36:10;;;;;;;2.10;2.00;;;21.90;45.40;;;;;;5056982;28;20442;-57
2023/04/15 10:38:38;;;;;;;2.67;2.43;;;22.20;45.50;;;;;;5057046;28;20499;-57
2023/04/15 10:41:16;;;;;;;2.10;1.90;;;22.80;44.90;;;;;;5057013;28;20445;-57
2023/04/15 10:43:48;;;;;;;2.67;2.30;;;23.10;42.10;;;;;;5056787;28;20469;-57
2023/04/15 10:46:19;;;;;;;2.47;2.33;;;23.40;41.40;;;;;;5056561;28;20802;-58
2023/04/15 10:48:50;;;;;;;3.60;1.87;;;23.70;40.00;;;;;;5056847;28;20544;-58
2023/04/15 10:51:28;;;;;;;2.10;2.00;;;24.20;40.70;;;;;;5056351;28;21017;-58
2023/04/15 10:53:58;;;;;;;2.53;2.33;;;24.50;39.10;;;;;;5056677;28;20501;-58
2023/04/15 10:56:25;;;;;;;2.90;2.70;;;24.50;38.90;;;;;;5057058;28;20453;-58
2023/04/15 10:58:51;;;;;;;3.47;2.03;;;24.80;39.40;;;;;;5056370;28;20955;-58
2023/04/15 11:01:22;;;;;;;2.93;2.67;;;25.10;38.20;;;;;;5056933;28;20442;-58
2023/04/15 11:03:49;;;;;;;2.60;2.43;;;25.30;37.10;;;;;;5056583;28;20472;-58
2023/04/15 11:06:17;;;;;;;3.20;3.00;;;25.80;37.30;;;;;;5056610;28;20453;-57
2023/04/15 11:08:55;;;;;;;3.60;3.30;;;26.40;36.20;;;;;;5056195;28;20939;-58
2023/04/15 11:11:22;;;;;;;3.50;3.10;;;26.40;34.90;;;;;;5056294;28;20563;-57
2023/04/15 11:13:51;;;;;;;3.23;3.03;;;25.90;34.30;;;;;;5056288;28;20472;-58
2023/04/15 11:16:18;;;;;;;2.70;2.60;;;25.50;35.60;;;;;;5056885;28;20449;-58
2023/04/15 11:18:54;;;;;;;2.83;2.63;;;25.30;36.20;;;;;;5056290;28;20477;-57
2023/04/15 11:21:25;;;;;;;2.40;2.30;;;25.40;37.30;;;;;;5056278;28;20569;-57
2023/04/15 11:23:52;;;;;;;2.53;2.33;;;25.80;36.40;;;;;;5056164;28;20501;-58
2023/04/15 11:26:19;;;;;;;3.00;2.30;;;26.50;35.20;;;;;;5055837;28;20951;-58
2023/04/15 11:28:46;;;;;;;2.90;2.70;;;27.20;33.90;;;;;;5056281;28;20449;-58
2023/04/15 11:31:15;;;;;;;2.47;2.37;;;27.90;33.00;;;;;;5056005;28;20477;-58
2023/04/15 11:33:46;;;;;;;2.80;2.60;;;28.10;31.30;;;;;;5055957;28;20474;-58
2023/04/15 11:36:13;;;;;;;2.80;2.60;;;28.00;31.30;;;;;;5055897;28;20469;-58
2023/04/15 11:38:44;;;;;;;4.10;3.80;;;27.60;31.80;;;;;;5056701;28;20454;-58
2023/04/15 11:41:11;;;;;;;3.83;3.53;;;27.30;31.30;;;;;;5055646;28;20449;-58
2023/04/15 11:43:38;;;;;;;3.20;3.00;;;26.60;32.40;;;;;;5054424;28;20434;-57
2023/04/15 11:46:05;;;;;;;3.27;3.07;;;25.90;33.80;;;;;;5055740;28;20453;-57
2023/04/15 11:48:33;;;;;;;4.00;3.70;;;25.20;35.20;;;;;;5055803;28;20467;-57
2023/04/15 11:51:02;;;;;;;3.30;3.07;;;24.60;36.50;;;;;;5055310;28;20998;-57
2023/04/15 11:53:40;;;;;;;4.83;4.43;;;24.00;37.20;;;;;;5055575;28;20446;-57
2023/04/15 11:56:11;;;;;;;2.53;2.40;;;23.30;38.10;;;;;;5055603;28;20528;-57
2023/04/15 11:58:38;;;;;;;3.37;3.07;;;23.00;38.90;;;;;;5055624;28;20430;-57
2023/04/15 12:01:06;;;;;;;3.10;2.90;;;22.80;39.40;;;;;;5055425;28;20484;-57
2023/04/15 12:03:38;;;;;;;3.67;2.67;;;22.90;39.70;;;;;;5055411;28;20523;-57
2023/04/15 12:06:15;;;;;;;2.40;2.20;;;23.00;39.50;;;;;;5056263;28;20917;-57
2023/04/15 12:08:59;;;;;;;2.97;2.77;;;22.90;39.80;;;;;;5055300;28;20802;-57
2023/04/15 12:11:44;;;;;;;3.30;3.00;;;22.70;39.70;;;;;;5055168;28;20552;-57
2023/04/15 12:14:24;;;;;;;3.23;2.93;;;22.40;40.10;;;;;;5055251;28;20518;-57
2023/04/15 12:16:53;;;;;;;8.00;7.30;;;22.10;40.50;;;;;;5055332;28;20425;-57
2023/04/15 12:19:24;;;;;;;8.70;7.90;;;22.10;41.40;;;;;;5055154;28;20528;-57
2023/04/15 12:21:52;;;;;;;10.60;9.70;;;21.80;41.80;;;;;;5054809;28;20499;-57
2023/04/15 12:24:22;;;;;;;8.83;8.00;;;21.50;42.90;;;;;;5054745;28;21015;-57
2023/04/15 12:26:52;;;;;;;5.80;5.23;;;21.10;42.90;;;;;;5055148;28;20495;-57
2023/04/15 12:29:19;;;;;;;4.40;4.10;;;20.80;44.10;;;;;;5055369;28;20442;-57
2023/04/15 12:31:49;;;;;;;4.80;4.40;;;20.60;44.10;;;;;;5055085;28;20473;-57
2023/04/15 12:34:16;;;;;;;4.30;4.00;;;20.40;44.90;;;;;;5054794;28;20465;-57
2023/04/15 12:36:43;;;;;;;5.33;4.70;;;20.20;45.70;;;;;;5054890;28;20499;-57
2023/04/15 12:39:10;;;;;;;4.17;3.80;;;19.90;45.90;;;;;;5054773;28;20442;-57
2023/04/15 12:41:36;;;;;;;3.90;3.60;;;19.70;45.90;;;;;;5054541;28;20457;-57
2023/04/15 12:44:05;;;;;;;3.53;3.20;;;19.50;46.40;;;;;;5054547;28;20471;-57
2023/04/15 12:46:32;;;;;;;3.30;3.00;;;19.50;47.00;;;;;;5054849;28;20504;-57
2023/04/15 12:48:58;;;;;;;4.17;3.73;;;19.30;46.70;;;;;;5054564;28;20453;-57
2023/04/15 12:51:26;;;;;;;3.90;3.47;;;19.10;46.50;;;;;;5054428;28;20477;-57
2023/04/15 12:53:52;;;;;;;4.70;3.43;;;18.90;47.40;;;;;;5053767;28;21009;-57